createdAt,value
2023-04-15T00:03:02.921Z,97743.22
2023-04-15T00:06:06.723Z,97740.56
2023-04-15T00:09:10.135Z,97739.72
2023-04-15T00:12:13.788Z,97741.69
2023-04-15T00:15:21.472Z,97743.50
2023-04-15T00:18:26.164Z,97737.06
2023-04-15T00:21:29.822Z,97735.53
2023-04-15T00:24:33.343Z,97742.50
2023-04-15T00:27:36.966Z,97746.16
2023-04-15T00:30:41.890Z,97756.53
2023-04-15T00:33:45.797Z,97751.06
2023-04-15T00:36:49.215Z,97752.06
2023-04-15T00:39:52.642Z,97755.69
2023-04-15T00:42:56.258Z,97754.00
2023-04-15T00:46:02.944Z,97753.03
2023-04-15T00:49:08.196Z,97754.69
2023-04-15T00:52:11.745Z,97740.41
2023-04-15T00:55:15.298Z,97759.03
2023-04-15T00:58:19.771Z,97761.28
2023-04-15T01:01:26.899Z,97757.75
2023-04-15T01:04:30.905Z,97752.44
2023-04-15T01:07:36.374Z,97759.59
2023-04-15T01:10:41.331Z,97758.88
2023-04-15T01:13:45.118Z,97770.22
2023-04-15T01:16:51.153Z,97775.81
2023-04-15T01:19:56.920Z,97774.59
2023-04-15T01:23:01.159Z,97772.31
2023-04-15T01:26:07.307Z,97778.50
2023-04-15T01:29:11.018Z,97780.03
2023-04-15T01:32:17.854Z,97782.69
2023-04-15T01:35:40.219Z,97792.75
2023-04-15T01:38:43.823Z,97789.41
2023-04-15T01:41:49.051Z,97798.63
2023-04-15T01:44:55.012Z,97798.91
2023-04-15T01:47:59.654Z,97796.69
2023-04-15T01:51:04.361Z,97802.16
2023-04-15T01:54:09.070Z,97794.97
2023-04-15T01:57:15.320Z,97797.13
2023-04-15T02:00:23.264Z,97799.19
2023-04-15T02:03:30.792Z,97806.78
2023-04-15T02:06:36.509Z,97800.03
2023-04-15T02:09:41.088Z,97799.91
2023-04-15T02:12:48.395Z,97793.44
2023-04-15T02:15:54.068Z,97794.72
2023-04-15T02:18:58.796Z,97807.06
2023-04-15T02:22:03.455Z,97812.09
2023-04-15T02:25:09.613Z,97814.19
2023-04-15T02:28:16.005Z,97818.38
2023-04-15T02:31:23.230Z,97816.44
2023-04-15T02:34:28.221Z,97823.38
2023-04-15T02:37:40.955Z,97821.41
2023-04-15T02:40:49.873Z,97819.50
2023-04-15T02:43:56.198Z,97831.50
2023-04-15T02:47:00.855Z,97836.66
2023-04-15T02:50:07.184Z,97836.97
2023-04-15T02:53:12.070Z,97846.31
2023-04-15T02:56:17.566Z,97850.63
2023-04-15T02:59:24.020Z,97858.22
2023-04-15T03:02:29.084Z,97861.31
2023-04-15T03:05:34.539Z,97868.91
2023-04-15T03:08:41.977Z,97864.41
2023-04-15T03:11:47.109Z,97871.38
2023-04-15T03:14:53.236Z,97888.22
2023-04-15T03:18:03.235Z,97889.19
2023-04-15T03:21:08.270Z,97893.56
2023-04-15T03:24:15.942Z,97890.59
2023-04-15T03:27:22.174Z,97888.75
2023-04-15T03:30:28.412Z,97893.00
2023-04-15T03:33:33.501Z,97904.31
2023-04-15T03:36:38.369Z,97903.47
2023-04-15T03:39:43.012Z,97917.28
2023-04-15T03:42:47.572Z,97909.06
2023-04-15T03:45:53.812Z,97914.47
2023-04-15T03:48:58.712Z,97920.91
2023-04-15T03:52:03.473Z,97924.25
2023-04-15T03:55:09.485Z,97926.66
2023-04-15T03:58:14.150Z,97928.34
2023-04-15T04:01:20.348Z,97938.56
2023-04-15T04:04:25.435Z,97940.97
2023-04-15T04:07:30.129Z,97941.56
2023-04-15T04:10:35.048Z,97940.50
2023-04-15T04:13:40.027Z,97940.34
2023-04-15T04:16:46.144Z,97934.56
2023-04-15T04:19:51.185Z,97941.22
2023-04-15T04:22:56.638Z,97933.84
2023-04-15T04:26:01.292Z,97952.03
2023-04-15T04:29:06.600Z,97954.06
2023-04-15T04:32:12.775Z,97951.44
2023-04-15T04:35:17.555Z,97954.44
2023-04-15T04:38:22.426Z,97953.94
2023-04-15T04:41:27.242Z,97962.09
2023-04-15T04:44:31.827Z,97956.72
2023-04-15T04:47:37.875Z,97962.94
2023-04-15T04:50:42.502Z,97964.50
2023-04-15T04:53:47.110Z,97965.22
2023-04-15T04:56:51.781Z,97965.25
2023-04-15T04:59:56.345Z,97962.63
2023-04-15T05:03:02.537Z,97973.06
2023-04-15T05:06:08.911Z,97971.72
2023-04-15T05:09:13.661Z,97976.16
2023-04-15T05:12:18.479Z,97979.28
2023-04-15T05:15:23.453Z,97983.28
2023-04-15T05:18:29.454Z,97988.50
2023-04-15T05:21:34.043Z,97987.66
2023-04-15T05:24:38.780Z,97986.22
2023-04-15T05:27:43.430Z,97994.72
2023-04-15T05:30:48.256Z,97989.47
2023-04-15T05:33:55.021Z,97998.75
2023-04-15T05:36:59.601Z,98006.25
2023-04-15T05:40:04.763Z,98008.41
2023-04-15T05:43:11.250Z,98003.59
2023-04-15T05:46:16.266Z,98008.25
2023-04-15T05:49:22.258Z,98014.25
2023-04-15T05:52:27.481Z,98010.63
2023-04-15T05:55:32.226Z,98011.94
2023-04-15T05:58:37.064Z,98006.25
2023-04-15T06:01:41.756Z,98007.16
2023-04-15T06:04:48.124Z,98019.53
2023-04-15T06:07:52.883Z,98017.97
2023-04-15T06:10:57.630Z,98015.59
2023-04-15T06:14:02.152Z,98016.59
2023-04-15T06:17:09.822Z,98028.91
2023-04-15T06:20:16.215Z,98019.41
2023-04-15T06:23:21.082Z,98025.06
2023-04-15T06:26:26.682Z,98029.69
2023-04-15T06:29:31.647Z,98029.56
2023-04-15T06:32:36.475Z,98034.19
2023-04-15T06:35:42.731Z,98034.50
2023-04-15T06:38:47.334Z,98041.25
2023-04-15T06:41:52.488Z,98043.03
2023-04-15T06:44:59.248Z,98038.53
2023-04-15T06:48:03.793Z,98031.66
2023-04-15T06:51:09.937Z,98030.22
2023-04-15T06:54:14.831Z,98037.44
2023-04-15T06:57:19.456Z,98036.84
2023-04-15T07:00:24.495Z,98028.53
2023-04-15T07:03:31.441Z,98035.75
2023-04-15T07:06:38.934Z,98032.75
2023-04-15T07:09:43.622Z,98034.69
2023-04-15T07:12:50.863Z,98036.56
2023-04-15T07:15:55.546Z,98045.25
2023-04-15T07:19:00.522Z,98039.00
2023-04-15T07:22:07.047Z,98045.66
2023-04-15T07:25:11.901Z,98049.41
2023-04-15T07:28:16.578Z,98056.25
2023-04-15T07:31:21.539Z,98053.13
2023-04-15T07:34:26.452Z,98060.81
2023-04-15T07:37:32.458Z,98049.78
2023-04-15T07:40:37.115Z,98066.16
2023-04-15T07:43:41.665Z,98063.91
2023-04-15T07:46:46.742Z,98063.03
2023-04-15T07:49:51.663Z,98069.09
2023-04-15T07:52:57.902Z,98072.25
2023-04-15T07:56:02.935Z,98072.41
2023-04-15T07:59:10.974Z,98070.13
2023-04-15T08:02:16.088Z,98078.81
2023-04-15T08:05:22.286Z,98076.00
2023-04-15T08:08:36.007Z,98070.44
2023-04-15T08:11:40.879Z,98075.69
2023-04-15T08:14:45.986Z,98078.47
2023-04-15T08:17:50.833Z,98077.13
2023-04-15T08:20:56.145Z,98074.59
2023-04-15T08:24:03.406Z,98081.94
2023-04-15T08:27:08.734Z,98077.31
2023-04-15T08:30:14.160Z,98086.00
2023-04-15T08:33:18.872Z,98085.53
2023-04-15T08:36:24.297Z,98083.84
2023-04-15T08:39:30.338Z,98087.56
2023-04-15T08:42:45.017Z,98076.91
2023-04-15T08:45:51.992Z,98075.34
2023-04-15T08:48:58.804Z,98076.84
2023-04-15T08:52:04.896Z,98071.97
2023-04-15T08:55:13.606Z,98077.84
2023-04-15T08:58:19.007Z,98078.31
2023-04-15T09:01:24.580Z,98075.25
2023-04-15T09:04:29.813Z,98085.63
2023-04-15T09:07:36.662Z,98076.69
2023-04-15T09:10:45.286Z,98078.53
2023-04-15T09:13:50.738Z,98081.97
2023-04-15T09:16:58.947Z,98084.66
2023-04-15T09:20:13.154Z,98078.84
2023-04-15T09:23:18.156Z,98075.44
2023-04-15T09:26:32.306Z,98090.13
2023-04-15T09:29:37.332Z,98081.13
2023-04-15T09:32:51.430Z,98084.47
2023-04-15T09:36:01.581Z,98088.59
2023-04-15T09:39:07.441Z,98085.44
2023-04-15T09:42:13.445Z,98087.38
2023-04-15T09:45:18.158Z,98075.44
2023-04-15T09:48:26.992Z,98078.44
2023-04-15T09:51:36.785Z,98078.19
2023-04-15T09:54:41.724Z,98084.22
2023-04-15T09:57:48.573Z,98089.63
2023-04-15T10:00:54.317Z,98080.22
2023-04-15T10:03:59.530Z,98081.44
2023-04-15T10:07:06.774Z,98084.69
2023-04-15T10:10:12.491Z,98088.56
2023-04-15T10:13:20.806Z,98103.63
2023-04-15T10:16:28.702Z,98094.63
2023-04-15T10:19:35.287Z,98082.59
2023-04-15T10:22:40.229Z,98095.88
2023-04-15T10:25:45.113Z,98098.25
2023-04-15T10:28:51.374Z,98099.72
2023-04-15T10:31:57.092Z,98098.31
2023-04-15T10:35:04.373Z,98107.28
2023-04-15T10:38:34.733Z,98104.91
2023-04-15T10:41:39.587Z,98098.22
2023-04-15T10:44:53.499Z,98104.31
2023-04-15T10:47:59.996Z,98100.88
2023-04-15T10:51:09.801Z,98101.94
2023-04-15T10:54:16.884Z,98107.84
2023-04-15T10:57:24.929Z,98110.09
2023-04-15T11:00:32.914Z,98113.00
2023-04-15T11:03:42.337Z,98117.38
2023-04-15T11:06:47.384Z,98110.84
2023-04-15T11:09:54.294Z,98111.28
2023-04-15T11:13:04.440Z,98101.06
2023-04-15T11:16:12.968Z,98108.72
2023-04-15T11:19:17.759Z,98101.03
2023-04-15T11:22:22.666Z,98113.13
2023-04-15T11:25:29.122Z,98107.44
2023-04-15T11:28:36.262Z,98111.78
2023-04-15T11:31:43.192Z,98115.78
2023-04-15T11:34:49.603Z,98115.34
2023-04-15T11:37:56.384Z,98119.13
2023-04-15T11:41:02.090Z,98114.25
2023-04-15T11:44:18.068Z,98118.75
2023-04-15T11:47:40.137Z,98121.03
2023-04-15T11:50:44.892Z,98125.84
2023-04-15T11:53:50.620Z,98126.50
2023-04-15T11:56:54.862Z,98121.03
2023-04-15T11:59:59.481Z,98124.78
2023-04-15T12:03:20.980Z,98125.88
2023-04-15T12:06:28.030Z,98126.69
2023-04-15T12:09:32.430Z,98127.75
2023-04-15T12:12:35.970Z,98135.31
2023-04-15T12:15:41.708Z,98129.16
2023-04-15T12:18:48.772Z,98130.28
2023-04-15T12:22:01.839Z,98135.66
2023-04-15T12:25:06.911Z,98140.66
2023-04-15T12:28:15.700Z,98136.13
2023-04-15T12:31:22.407Z,98142.44
2023-04-15T12:34:34.245Z,98128.19
2023-04-15T12:37:37.653Z,98137.19
2023-04-15T12:40:41.101Z,98133.72
2023-04-15T12:43:47.351Z,98137.84
2023-04-15T12:46:51.362Z,98134.34
2023-04-15T12:49:56.264Z,98143.16
2023-04-15T12:53:00.271Z,98140.97
2023-04-15T12:56:05.697Z,98146.84
2023-04-15T12:59:09.197Z,98143.25
2023-04-15T13:02:12.746Z,98151.06
2023-04-15T13:05:17.717Z,98157.53
2023-04-15T13:08:21.219Z,98150.41
2023-04-15T13:11:25.602Z,98159.50
2023-04-15T13:14:29.299Z,98159.81
2023-04-15T13:17:34.555Z,98154.03
2023-04-15T13:20:39.332Z,98161.72
2023-04-15T13:23:43.289Z,98158.91
2023-04-15T13:26:50.375Z,98164.59
2023-04-15T13:29:59.299Z,98166.75
2023-04-15T13:33:03.204Z,98159.66
2023-04-15T13:36:08.480Z,98165.97
2023-04-15T13:39:11.885Z,98167.22
2023-04-15T13:42:15.454Z,98172.13
2023-04-15T13:45:18.933Z,98164.88
2023-04-15T13:48:22.415Z,98170.22
2023-04-15T13:51:27.338Z,98167.94
2023-04-15T13:54:37.139Z,98170.88
2023-04-15T13:57:43.601Z,98173.69
2023-04-15T14:00:47.317Z,98175.75
2023-04-15T14:03:50.847Z,98181.28
2023-04-15T14:06:58.660Z,98176.88
2023-04-15T14:10:02.769Z,98186.13
2023-04-15T14:13:06.459Z,98192.06
2023-04-15T14:16:09.953Z,98186.81
2023-04-15T14:19:13.518Z,98191.03
2023-04-15T14:22:19.261Z,98186.09
2023-04-15T14:25:32.795Z,98187.28
2023-04-15T14:28:38.744Z,98186.75
2023-04-15T14:31:42.798Z,98196.34
2023-04-15T14:35:07.353Z,98194.75
2023-04-15T14:38:12.445Z,98197.47
2023-04-15T14:41:16.270Z,98202.22
2023-04-15T14:44:19.845Z,98204.75
2023-04-15T14:47:23.668Z,98206.13
2023-04-15T14:50:27.357Z,98202.03
2023-04-15T14:53:32.429Z,98217.06
2023-04-15T14:56:38.718Z,98217.59
2023-04-15T14:59:42.726Z,98221.41
2023-04-15T15:02:48.628Z,98221.91
2023-04-15T15:05:52.377Z,98227.50
2023-04-15T15:08:57.564Z,98237.44
2023-04-15T15:12:01.981Z,98241.69
2023-04-15T15:15:15.536Z,98244.63
2023-04-15T15:18:25.656Z,98242.28
2023-04-15T15:21:29.025Z,98240.75
2023-04-15T15:24:34.947Z,98255.22
2023-04-15T15:27:38.561Z,98250.59
2023-04-15T15:30:42.336Z,98257.78
2023-04-15T15:33:46.411Z,98253.97
2023-04-15T15:36:50.101Z,98254.22
2023-04-15T15:39:55.575Z,98248.34
2023-04-15T15:42:58.995Z,98253.56
2023-04-15T15:46:05.735Z,98255.50
2023-04-15T15:49:09.277Z,98265.34
2023-04-15T15:52:13.050Z,98264.06
2023-04-15T15:55:18.160Z,98267.28
2023-04-15T15:58:21.668Z,98267.28
2023-04-15T16:01:25.699Z,98262.81
2023-04-15T16:04:29.550Z,98267.59
2023-04-15T16:07:33.460Z,98254.94
2023-04-15T16:10:42.231Z,98260.41
2023-04-15T16:13:46.588Z,98260.13
2023-04-15T16:16:50.054Z,98263.06
2023-04-15T16:19:58.081Z,98272.81
2023-04-15T16:23:10.311Z,98271.81
2023-04-15T16:26:15.627Z,98275.16
2023-04-15T16:29:19.208Z,98274.06
2023-04-15T16:32:23.104Z,98284.31
2023-04-15T16:35:26.691Z,98287.66
2023-04-15T16:38:30.613Z,98285.50
2023-04-15T16:41:35.914Z,98289.16
2023-04-15T16:44:40.861Z,98295.38
2023-04-15T16:47:45.239Z,98302.25
2023-04-15T16:50:49.065Z,98302.19
2023-04-15T16:53:52.713Z,98308.50
2023-04-15T16:56:57.954Z,98328.59
2023-04-15T17:00:01.805Z,98322.91
2023-04-15T17:03:06.505Z,98331.69
2023-04-15T17:06:10.265Z,98340.59
2023-04-15T17:09:13.745Z,98340.50
2023-04-15T17:12:18.836Z,98349.94
2023-04-15T17:15:23.612Z,98349.97
2023-04-15T17:18:37.209Z,98358.94
2023-04-15T17:21:49.679Z,98372.03
2023-04-15T17:24:57.582Z,98364.22
2023-04-15T17:28:02.721Z,98361.25
2023-04-15T17:31:07.458Z,98369.97
2023-04-15T17:34:50.796Z,98374.19
2023-04-15T17:38:14.647Z,98371.88
2023-04-15T17:41:37.958Z,98380.56
2023-04-15T17:45:03.153Z,98391.53
2023-04-15T17:48:27.009Z,98400.72
2023-04-15T17:51:50.524Z,98409.16
2023-04-15T17:55:13.956Z,98413.13
2023-04-15T17:58:39.402Z,98415.06
2023-04-15T18:02:06.081Z,98419.16
2023-04-15T18:05:29.605Z,98427.06
2023-04-15T18:08:53.311Z,98426.94
2023-04-15T18:12:16.687Z,98429.81
2023-04-15T18:15:44.118Z,98435.81
2023-04-15T18:19:11.433Z,98441.97
2023-04-15T18:22:14.936Z,98446.91
2023-04-15T18:25:18.551Z,98450.03
2023-04-15T18:28:22.723Z,98455.41
2023-04-15T18:31:26.902Z,98461.41
2023-04-15T18:34:31.921Z,98467.47
2023-04-15T18:37:35.516Z,98469.41
2023-04-15T18:40:39.240Z,98464.81
2023-04-15T18:43:43.820Z,98461.06
2023-04-15T18:46:51.000Z,98465.34
2023-04-15T18:49:59.734Z,98465.09
2023-04-15T18:53:05.638Z,98472.75
2023-04-15T18:56:09.053Z,98474.59
2023-04-15T18:59:28.114Z,98482.63
2023-04-15T19:02:33.406Z,98480.25
2023-04-15T19:05:38.510Z,98489.53
2023-04-15T19:08:42.117Z,98488.63
2023-04-15T19:11:47.831Z,98489.44
2023-04-15T19:14:53.588Z,98487.41
2023-04-15T19:17:58.827Z,98498.25
2023-04-15T19:21:04.183Z,98492.84
2023-04-15T19:24:10.256Z,98504.63
2023-04-15T19:27:16.785Z,98502.50
2023-04-15T19:30:21.389Z,98493.78
2023-04-15T19:33:27.466Z,98513.25
2023-04-15T19:36:33.440Z,98516.19
2023-04-15T19:39:36.946Z,98524.19
2023-04-15T19:42:40.659Z,98527.91
2023-04-15T19:45:45.725Z,98524.31
2023-04-15T19:48:49.410Z,98528.53
2023-04-15T19:51:54.286Z,98535.66
2023-04-15T19:54:58.925Z,98526.53
2023-04-15T19:58:02.606Z,98535.41
2023-04-15T20:01:07.954Z,98534.06
2023-04-15T20:04:11.830Z,98534.56
2023-04-15T20:07:17.007Z,98533.19
2023-04-15T20:10:22.983Z,98538.72
2023-04-15T20:13:27.063Z,98539.56
2023-04-15T20:16:30.522Z,98542.44
2023-04-15T20:19:33.943Z,98546.72
2023-04-15T20:22:41.300Z,98546.31
2023-04-15T20:25:44.807Z,98546.59
2023-04-15T20:28:48.549Z,98551.56
2023-04-15T20:31:55.776Z,98555.91
2023-04-15T20:35:00.022Z,98554.69
2023-04-15T20:38:06.999Z,98555.81
2023-04-15T20:41:13.550Z,98555.53
2023-04-15T20:44:17.344Z,98580.00
2023-04-15T20:47:21.166Z,98602.72
2023-04-15T20:50:24.827Z,98605.03
2023-04-15T20:53:29.639Z,98590.78
2023-04-15T20:56:33.168Z,98573.97
2023-04-15T20:59:36.838Z,98581.84
2023-04-15T21:02:40.616Z,98585.66
2023-04-15T21:05:44.036Z,98583.25
2023-04-15T21:08:48.799Z,98595.34
2023-04-15T21:12:01.199Z,98601.91
2023-04-15T21:15:06.201Z,98602.66
2023-04-15T21:18:09.564Z,98616.38
2023-04-15T21:21:13.223Z,98614.09
2023-04-15T21:24:18.222Z,98611.78
2023-04-15T21:27:23.866Z,98616.94
2023-04-15T21:30:29.363Z,98619.16
2023-04-15T21:33:32.865Z,98624.50
2023-04-15T21:36:39.630Z,98615.38
2023-04-15T21:39:48.851Z,98615.09
2023-04-15T21:42:52.769Z,98618.97
2023-04-15T21:46:22.223Z,98623.41
2023-04-15T21:49:21.595Z,98637.38
2023-04-15T21:52:26.779Z,98638.59
2023-04-15T21:55:31.918Z,98631.78
2023-04-15T21:58:37.733Z,98635.78
2023-04-15T22:01:43.457Z,98636.50
2023-04-15T22:04:47.083Z,98640.38
2023-04-15T22:07:54.352Z,98636.81
2023-04-15T22:11:01.713Z,98638.84
2023-04-15T22:14:06.561Z,98642.03
2023-04-15T22:17:09.967Z,98648.94
2023-04-15T22:20:13.482Z,98649.94
2023-04-15T22:23:20.431Z,98654.81
2023-04-15T22:26:25.429Z,98658.13
2023-04-15T22:29:28.968Z,98656.16
2023-04-15T22:32:32.442Z,98657.41
2023-04-15T22:35:37.449Z,98657.19
2023-04-15T22:38:41.161Z,98667.97
2023-04-15T22:41:46.359Z,98664.16
2023-04-15T22:44:54.102Z,98672.56
2023-04-15T22:48:00.813Z,98672.50
2023-04-15T22:51:07.479Z,98671.28
2023-04-15T22:54:11.140Z,98668.47
2023-04-15T22:57:15.918Z,98664.56
2023-04-15T23:00:19.723Z,98672.50
2023-04-15T23:03:23.365Z,98668.53
2023-04-15T23:06:28.792Z,98673.44
2023-04-15T23:09:32.531Z,98672.06
2023-04-15T23:12:37.619Z,98675.91
2023-04-15T23:15:41.280Z,98681.09
2023-04-15T23:18:44.849Z,98683.16
2023-04-15T23:21:48.983Z,98681.19
2023-04-15T23:24:52.806Z,98680.63
2023-04-15T23:27:57.747Z,98678.44
2023-04-15T23:31:01.437Z,98669.28
2023-04-15T23:34:05.713Z,98678.44
2023-04-15T23:37:09.199Z,98680.91
2023-04-15T23:40:16.127Z,98687.13
2023-04-15T23:43:21.441Z,98683.34
2023-04-15T23:46:24.984Z,98685.81
2023-04-15T23:49:28.530Z,98683.81
2023-04-15T23:52:32.093Z,98689.50
2023-04-15T23:55:35.834Z,98690.06
2023-04-15T23:58:40.668Z,98681.59
